Potsdam, NY

44° 42' 44"N, 74° 57' 12"W, Elevation 460 ft.
Eastern Time

Hourly observations for the last 72 hours

Date Time Temperature (°F) Humi-
dity

(%)
Wind
(mph)
Pressure Rain (in)
Air Dew 6 Hour 1 Hr 3 Hr 6 Hr Day
Alt
(in)
Sea
Level

(mb)
Max Min
3 00:00 43.6 37.2 78 Calm 29.82 1009.9 0.00
2 23:00 43.6 37.2 78 Calm 29.83 1010.3 0.00
2 22:00 43.6 37.2 78 Calm 29.85 1011.0 0.00
2 21:00 43.6 37.2 78 Calm 29.88 1011.7 0.00
2 20:00 43.6 37.2 50.8 43.6 78 Calm 29.88 1011.9 0.00
2 19:00 43.6 37.2 78 Calm 29.87 1011.6 0.00
2 18:00 45.0 37.6 75 Calm 29.85 1011.0 0.00
2 17:00 46.9 35.4 64 Calm 29.84 1010.6 0.00
2 16:00 50.2 36.0 58 Calm 29.83 1010.3 0.00
2 15:00 48.6 34.5 58 Calm 29.83 1010.4 0.00
2 14:00 47.8 34.6 48.6 39.0 60 Calm 29.85 1010.9 0.00
2 13:00 47.5 35.5 63 Calm 29.86 1011.4 0.00
2 12:00 44.7 34.4 67 Calm 29.88 1012.0 0.00
2 11:00 44.4 34.5 68 Calm 29.89 1012.1 0.00
2 10:00 42.4 33.0 69 Calm 29.90 1012.6 0.00
2 09:00 40.0 31.7 72 Calm 29.91 1012.7 0.00
2 08:00 40.0 31.7 40.0 40.0 72 Calm 29.91 1012.8 0.00
2 07:00 40.0 31.7 72 Calm 29.90 1012.5 0.00
2 06:00 40.0 31.7 72 Calm 29.90 1012.4 0.00
2 05:00 40.0 31.7 72 Calm 29.90 1012.4 0.00
2 04:00 40.0 31.7 72 Calm 29.89 1012.1 0.00
2 03:00 40.0 31.7 72 Calm 29.89 1012.2 0.00
2 02:00 40.0 31.7 40.0 40.0 72 Calm 29.90 1012.5 0.00
2 01:00 40.0 31.7 72 Calm 29.90 1012.6 0.00
2 00:00 40.0 31.7 72 Calm 29.91 1012.9 0.00
1 23:00 40.0 31.7 72 Calm 29.92 1013.3 0.00
1 22:00 40.0 31.7 72 Calm 29.94 1013.8 0.00
1 21:00 40.0 31.7 72 Calm 29.95 1014.1 0.00
1 20:00 40.0 31.7 47.4 40.0 72 Calm 29.93 1013.6 0.00
1 19:00 40.0 31.7 72 Calm 29.93 1013.4 0.00
1 18:00 40.7 31.0 68 Calm 29.93 1013.5 0.00
1 17:00 42.6 31.3 64 Calm 29.92 1013.1 0.00
1 16:00 45.0 32.0 60 Calm 29.91 1012.8 0.00
1 15:00 45.0 32.4 61 Calm 29.91 1012.9 0.00
1 14:00 45.4 34.7 45.4 34.0 66 Calm 29.92 1013.2 0.00
1 13:00 40.5 33.9 77 Calm 29.94 1013.9 0.00
1 12:00 36.8 31.5 81 Calm 29.95 1014.3 0.00
1 11:00 35.0 30.7 84 Calm 29.96 1014.5 0.00
1 10:00 40.5 28.5 62 Calm 29.96 1014.6 0.00
1 09:00 40.5 28.5 62 Calm 29.97 1014.8 0.00
1 08:00 40.5 28.5 40.5 40.5 62 Calm 29.96 1014.7 0.00
1 07:00 40.5 28.5 62 Calm 29.95 1014.1 0.00
1 06:00 40.5 28.5 62 Calm 29.94 1013.9 0.00
1 05:00 40.5 28.5 62 Calm 29.95 1014.3 0.00
1 04:00 40.5 28.5 62 Calm 29.95 1014.3 0.00
1 03:00 40.5 28.5 62 Calm 29.97 1014.8 0.00
1 02:00 40.5 28.5 40.5 40.5 62 Calm 29.98 1015.3 0.00
1 01:00 40.5 28.5 62 Calm 30.00 1015.8 0.00
1 00:00 40.5 28.5 62 Calm 30.00 1016.1 0.00
31 23:00 40.5 28.5 62 Calm 30.02 1016.8 0.00
31 22:00 40.5 28.5 62 Calm 30.04 1017.2 0.00
31 21:00 40.5 28.5 62 Calm 30.05 1017.5 0.00
31 20:00 40.5 28.5 49.4 40.5 62 Calm 30.05 1017.6 0.00
31 19:00 40.8 29.2 63 Calm 30.04 1017.4 0.00
31 18:00 45.0 31.1 58 Calm 30.04 1017.4 0.00
31 17:00 47.5 33.5 58 Calm 30.04 1017.3 0.00
31 16:00 49.1 35.8 60 Calm 30.03 1017.1 0.00
31 15:00 49.0 37.0 63 Calm 30.04 1017.4 0.00
31 14:00 47.8 37.8 48.1 0.0 68 Calm 30.06 1017.9 0.00
31 13:00 45.2 38.4 77 Calm 30.09 1018.9 0.00
31 12:00 43.9 41.7 92 Calm 30.10 1019.3 0.00
31 11:00 38.5 37.7 97 Calm 30.11 1019.7 0.00
31 10:00 0.0 -79.1 0 Calm 30.11 1019.6 0.00
31 09:00 0.0 -79.1 0 Calm 30.10 1019.4 0.00
31 08:00 0.0 -79.1 0.0 0.0 0 Calm 30.10 1019.3 0.00
31 07:00 0.0 -79.1 0 Calm 30.08 1018.7 0.00
31 06:00 0.0 -79.1 0 Calm 30.06 1018.0 0.00
31 05:00 0.0 -79.1 0 Calm 30.04 1017.3 0.00
31 04:00 0.0 -79.1 0 Calm 30.03 1016.9 0.00
31 03:00 0.0 -79.1 0 Calm 30.01 1016.5 0.00
31 02:00 0.0 -79.1 0.0 0.0 0 Calm 30.01 1016.3 0.00
31 01:00 0.0 -79.1 0 Calm 30.00 1015.9 0.00

Data generated by WxSolution Version 1.9.1.5, Build 2018.05.20.